createdAt,value
2023-04-04T00:01:54.101Z,3.45
2023-04-04T00:04:26.748Z,3.42
2023-04-04T00:07:00.962Z,3.38
2023-04-04T00:09:33.883Z,3.35
2023-04-04T00:12:06.814Z,3.34
2023-04-04T00:14:39.574Z,3.32
2023-04-04T00:17:12.435Z,3.32
2023-04-04T00:19:45.051Z,3.30
2023-04-04T00:22:19.191Z,3.30
2023-04-04T00:24:52.157Z,3.30
2023-04-04T00:27:24.893Z,3.30
2023-04-04T00:29:57.601Z,3.30
2023-04-04T00:32:30.468Z,3.30
2023-04-04T00:35:03.967Z,3.31
2023-04-04T00:37:39.325Z,3.32
2023-04-04T00:40:12.875Z,3.34
2023-04-04T00:42:45.594Z,3.37
2023-04-04T00:45:18.312Z,3.39
2023-04-04T00:47:51.657Z,3.41
2023-04-04T00:50:24.445Z,3.41
2023-04-04T00:52:58.864Z,3.42
2023-04-04T00:55:32.570Z,3.42
2023-04-04T00:58:05.615Z,3.39
2023-04-04T01:00:38.538Z,3.38
2023-04-04T01:03:12.972Z,3.38
2023-04-04T01:05:45.728Z,3.37
2023-04-04T01:08:22.893Z,3.39
2023-04-04T01:10:55.538Z,3.38
2023-04-04T01:13:28.308Z,3.40
2023-04-04T01:16:01.532Z,3.38
2023-04-04T01:18:35.759Z,3.40
2023-04-04T01:21:10.621Z,3.40
2023-04-04T01:23:50.651Z,3.40
2023-04-04T01:26:27.154Z,3.41
2023-04-04T01:29:00.835Z,3.38
2023-04-04T01:31:36.755Z,3.38
2023-04-04T01:34:12.250Z,3.38
2023-04-04T01:36:49.434Z,3.35
2023-04-04T01:39:24.439Z,3.36
2023-04-04T01:41:59.655Z,3.34
2023-04-04T01:44:32.460Z,3.33
2023-04-04T01:47:07.035Z,3.31
2023-04-04T01:49:39.805Z,3.31
2023-04-04T01:52:12.559Z,3.28
2023-04-04T01:54:45.390Z,3.27
2023-04-04T01:57:19.699Z,3.22
2023-04-04T01:59:52.397Z,3.19
2023-04-04T02:02:25.136Z,3.16
2023-04-04T02:04:57.867Z,3.13
2023-04-04T02:07:30.527Z,3.10
2023-04-04T02:10:03.353Z,3.06
2023-04-04T02:12:37.372Z,3.00
2023-04-04T02:15:10.660Z,2.98
2023-04-04T02:17:47.551Z,2.96
2023-04-04T02:20:20.327Z,2.93
2023-04-04T02:22:54.012Z,2.91
2023-04-04T02:25:26.804Z,2.87
2023-04-04T02:28:00.876Z,2.86
2023-04-04T02:30:33.938Z,2.82
2023-04-04T02:33:06.704Z,2.79
2023-04-04T02:35:39.455Z,2.77
2023-04-04T02:38:12.389Z,2.77
2023-04-04T02:40:46.853Z,2.74
2023-04-04T02:43:21.162Z,2.74
2023-04-04T02:45:53.876Z,2.71
2023-04-04T02:48:27.503Z,2.69
2023-04-04T02:51:00.270Z,2.66
2023-04-04T02:53:32.988Z,2.64
2023-04-04T02:56:06.079Z,2.62
2023-04-04T02:58:41.592Z,2.58
2023-04-04T03:01:15.511Z,2.57
2023-04-04T03:03:48.321Z,2.54
2023-04-04T03:06:21.113Z,2.51
2023-04-04T03:08:53.770Z,2.47
2023-04-04T03:11:27.253Z,2.45
2023-04-04T03:14:01.393Z,2.42
2023-04-04T03:16:34.676Z,2.37
2023-04-04T03:19:07.591Z,2.34
2023-04-04T03:21:40.329Z,2.31
2023-04-04T03:24:13.367Z,2.30
2023-04-04T03:26:46.107Z,2.26
2023-04-04T03:29:20.441Z,2.25
2023-04-04T03:31:53.329Z,2.24
2023-04-04T03:34:27.645Z,2.25
2023-04-04T03:37:00.429Z,2.22
2023-04-04T03:39:33.108Z,2.21
2023-04-04T03:42:05.904Z,2.18
2023-04-04T03:44:42.333Z,2.18
2023-04-04T03:47:15.642Z,2.18
2023-04-04T03:49:48.348Z,2.17
2023-04-04T03:52:21.335Z,2.17
2023-04-04T03:54:54.227Z,2.15
2023-04-04T03:57:28.476Z,2.15
2023-04-04T04:00:02.762Z,2.16
2023-04-04T04:02:35.576Z,2.16
2023-04-04T04:05:09.271Z,2.16
2023-04-04T04:07:44.070Z,2.19
2023-04-04T04:10:17.128Z,2.19
2023-04-04T04:12:49.915Z,2.19
2023-04-04T04:15:24.012Z,2.17
2023-04-04T04:17:57.073Z,2.17
2023-04-04T04:20:29.842Z,2.15
2023-04-04T04:23:02.723Z,2.12
2023-04-04T04:25:35.416Z,2.10
2023-04-04T04:28:08.147Z,2.08
2023-04-04T04:30:42.386Z,2.08
2023-04-04T04:33:15.366Z,2.07
2023-04-04T04:35:48.063Z,2.03
2023-04-04T04:38:20.829Z,2.01
2023-04-04T04:40:53.443Z,1.98
2023-04-04T04:43:27.013Z,1.94
2023-04-04T04:46:01.179Z,1.88
2023-04-04T04:48:34.111Z,1.84
2023-04-04T04:51:06.839Z,1.81
2023-04-04T04:53:39.604Z,1.77
2023-04-04T04:56:12.324Z,1.75
2023-04-04T04:58:47.804Z,1.72
2023-04-04T05:01:22.025Z,1.70
2023-04-04T05:03:54.994Z,1.71
2023-04-04T05:06:27.673Z,1.69
2023-04-04T05:09:00.436Z,1.70
2023-04-04T05:11:33.196Z,1.71
2023-04-04T05:14:06.816Z,1.73
2023-04-04T05:16:41.415Z,1.76
2023-04-04T05:19:14.140Z,1.77
2023-04-04T05:21:47.582Z,1.80
2023-04-04T05:24:20.311Z,1.82
2023-04-04T05:26:52.962Z,1.84
2023-04-04T05:29:25.719Z,1.88
2023-04-04T05:31:59.915Z,1.90
2023-04-04T05:34:32.714Z,1.94
2023-04-04T05:37:05.419Z,1.95
2023-04-04T05:39:39.556Z,2.01
2023-04-04T05:42:12.448Z,2.01
2023-04-04T05:44:45.224Z,2.06
2023-04-04T05:47:21.958Z,2.09
2023-04-04T05:49:54.851Z,2.14
2023-04-04T05:52:27.620Z,2.17
2023-04-04T05:55:00.392Z,2.22
2023-04-04T05:57:33.609Z,2.29
2023-04-04T06:00:09.827Z,2.38
2023-04-04T06:02:44.761Z,2.47
2023-04-04T06:05:17.907Z,2.58
2023-04-04T06:07:50.579Z,2.67
2023-04-04T06:10:23.546Z,2.77
2023-04-04T06:12:56.423Z,2.85
2023-04-04T06:15:29.516Z,2.94
2023-04-04T06:18:03.620Z,3.02
2023-04-04T06:20:36.389Z,3.14
2023-04-04T06:23:10.258Z,3.24
2023-04-04T06:25:43.066Z,3.36
2023-04-04T06:28:16.026Z,3.52
2023-04-04T06:30:49.599Z,3.65
2023-04-04T06:33:23.752Z,3.80
2023-04-04T06:35:58.371Z,3.97
2023-04-04T06:38:31.529Z,4.12
2023-04-04T06:41:04.291Z,4.31
2023-04-04T06:43:37.456Z,4.50
2023-04-04T06:46:10.634Z,4.71
2023-04-04T06:48:45.086Z,4.89
2023-04-04T06:51:17.796Z,5.08
2023-04-04T06:53:50.565Z,5.23
2023-04-04T06:56:24.095Z,5.36
2023-04-04T06:58:56.975Z,5.50
2023-04-04T07:01:29.815Z,5.65
2023-04-04T07:04:04.090Z,5.76
2023-04-04T07:06:37.164Z,5.87
2023-04-04T07:09:18.442Z,5.98
2023-04-04T07:11:58.995Z,6.10
2023-04-04T07:14:31.715Z,6.19
2023-04-04T07:17:13.785Z,6.30
2023-04-04T07:19:55.923Z,6.41
2023-04-04T07:22:28.638Z,6.52
2023-04-04T07:25:01.352Z,6.60
2023-04-04T07:27:34.094Z,6.69
2023-04-04T07:30:07.294Z,6.74
2023-04-04T07:32:40.091Z,6.76
2023-04-04T07:35:14.821Z,6.75
2023-04-04T07:37:47.491Z,6.76
2023-04-04T07:40:20.297Z,6.76
2023-04-04T07:42:54.532Z,6.76
2023-04-04T07:45:27.244Z,6.78
2023-04-04T07:48:00.102Z,6.79
2023-04-04T07:50:35.242Z,6.83
2023-04-04T07:53:08.207Z,6.83
2023-04-04T07:55:40.850Z,6.87
2023-04-04T07:58:13.562Z,6.85
2023-04-04T08:00:46.394Z,6.85
2023-04-04T08:03:20.000Z,6.88
2023-04-04T08:05:54.142Z,6.90
2023-04-04T08:08:27.360Z,6.94
2023-04-04T08:11:00.113Z,6.98
2023-04-04T08:13:32.807Z,7.03
2023-04-04T08:16:06.218Z,7.11
2023-04-04T08:18:39.085Z,7.17
2023-04-04T08:21:13.145Z,7.27
2023-04-04T08:23:46.089Z,7.34
2023-04-04T08:26:19.106Z,7.39
2023-04-04T08:28:51.795Z,7.45
2023-04-04T08:31:24.881Z,7.47
2023-04-04T08:33:57.700Z,7.52
2023-04-04T08:36:31.799Z,7.57
2023-04-04T08:39:04.592Z,7.58
2023-04-04T08:41:37.547Z,7.62
2023-04-04T08:44:11.767Z,7.66
2023-04-04T08:46:45.521Z,7.70
2023-04-04T08:49:21.276Z,7.75
2023-04-04T08:51:57.497Z,7.79
2023-04-04T08:54:31.770Z,7.83
2023-04-04T08:57:04.444Z,7.85
2023-04-04T08:59:37.521Z,7.88
2023-04-04T09:02:17.973Z,7.86
2023-04-04T09:04:58.605Z,7.83
2023-04-04T09:07:40.107Z,7.78
2023-04-04T09:10:13.121Z,7.76
2023-04-04T09:12:47.627Z,7.74
2023-04-04T09:15:20.407Z,7.72
2023-04-04T09:17:53.063Z,7.74
2023-04-04T09:20:35.730Z,7.73
2023-04-04T09:23:11.057Z,7.72
2023-04-04T09:26:02.546Z,7.72
2023-04-04T09:28:36.954Z,7.69
2023-04-04T09:31:10.141Z,7.65
2023-04-04T09:33:42.989Z,7.60
2023-04-04T09:36:18.280Z,7.55
2023-04-04T09:38:54.622Z,7.52
2023-04-04T09:41:27.460Z,7.50
2023-04-04T09:44:00.152Z,7.50
2023-04-04T09:46:32.877Z,7.51
2023-04-04T09:49:05.873Z,7.50
2023-04-04T09:51:41.496Z,7.52
2023-04-04T09:54:28.857Z,7.51
2023-04-04T09:57:02.790Z,7.49
2023-04-04T09:59:35.639Z,7.48
2023-04-04T10:02:10.495Z,7.44
2023-04-04T10:04:44.611Z,7.43
2023-04-04T10:07:19.901Z,7.40
2023-04-04T10:09:54.153Z,7.41
2023-04-04T10:12:27.000Z,7.39
2023-04-04T10:15:00.142Z,7.39
2023-04-04T10:17:33.237Z,7.38
2023-04-04T10:20:07.105Z,7.40
2023-04-04T10:22:40.294Z,7.44
2023-04-04T10:25:14.901Z,7.49
2023-04-04T10:27:48.303Z,7.57
2023-04-04T10:30:22.302Z,7.65
2023-04-04T10:32:58.860Z,7.73
2023-04-04T10:35:34.205Z,7.82
2023-04-04T10:38:08.471Z,7.90
2023-04-04T10:40:45.007Z,7.97
2023-04-04T10:43:22.010Z,8.06
2023-04-04T10:45:55.876Z,8.15
2023-04-04T10:48:28.930Z,8.22
2023-04-04T10:51:02.234Z,8.27
2023-04-04T10:53:35.832Z,8.35
2023-04-04T10:56:10.385Z,8.40
2023-04-04T10:58:43.876Z,8.44
2023-04-04T11:01:21.051Z,8.47
2023-04-04T11:04:13.490Z,8.51
2023-04-04T11:07:01.227Z,8.54
2023-04-04T11:09:56.625Z,8.60
2023-04-04T11:12:33.579Z,8.64
2023-04-04T11:15:11.056Z,8.68
2023-04-04T11:17:44.608Z,8.73
2023-04-04T11:20:17.997Z,8.78
2023-04-04T11:22:51.096Z,8.82
2023-04-04T11:25:28.556Z,8.86
2023-04-04T11:28:05.793Z,8.89
2023-04-04T11:30:48.308Z,8.92
2023-04-04T11:33:31.815Z,8.96
2023-04-04T11:36:08.498Z,8.98
2023-04-04T11:38:41.808Z,9.03
2023-04-04T11:41:15.335Z,9.04
2023-04-04T11:43:51.388Z,9.08
2023-04-04T11:46:25.122Z,9.07
2023-04-04T11:48:58.342Z,9.05
2023-04-04T11:51:32.384Z,9.11
2023-04-04T11:54:06.069Z,9.11
2023-04-04T11:56:39.073Z,9.14
2023-04-04T11:59:14.117Z,9.16
2023-04-04T12:01:46.920Z,9.20
2023-04-04T12:04:20.343Z,9.20
2023-04-04T12:06:54.158Z,9.24
2023-04-04T12:09:27.206Z,9.27
2023-04-04T12:11:59.976Z,9.27
2023-04-04T12:14:34.648Z,9.29
2023-04-04T12:17:07.505Z,9.28
2023-04-04T12:19:40.564Z,9.30
2023-04-04T12:22:13.299Z,9.29
2023-04-04T12:24:46.282Z,9.31
2023-04-04T12:27:19.033Z,9.31
2023-04-04T12:29:53.300Z,9.30
2023-04-04T12:32:27.249Z,9.31
2023-04-04T12:35:02.259Z,9.32
2023-04-04T12:37:35.118Z,9.33
2023-04-04T12:40:08.680Z,9.36
2023-04-04T12:42:41.876Z,9.39
2023-04-04T12:45:15.910Z,9.43
2023-04-04T12:47:52.964Z,9.46
2023-04-04T12:50:27.304Z,9.54
2023-04-04T12:55:54.182Z,9.64
2023-04-04T12:58:27.237Z,9.69
2023-04-04T13:01:02.706Z,9.69
2023-04-04T13:03:37.882Z,9.74
2023-04-04T13:06:14.448Z,9.74
2023-04-04T13:08:51.262Z,9.79
2023-04-04T13:11:24.025Z,9.80
2023-04-04T13:14:03.461Z,9.81
2023-04-04T13:16:38.034Z,9.83
2023-04-04T13:19:10.754Z,9.84
2023-04-04T13:21:43.693Z,9.86
2023-04-04T13:24:16.824Z,9.87
2023-04-04T13:26:49.571Z,9.90
2023-04-04T13:29:25.150Z,9.91
2023-04-04T13:31:59.279Z,9.93
2023-04-04T13:34:32.592Z,9.93
2023-04-04T13:37:05.291Z,9.96
2023-04-04T13:39:38.317Z,9.97
2023-04-04T13:42:11.068Z,9.97
2023-04-04T13:44:43.811Z,9.97
2023-04-04T13:47:17.913Z,9.99
2023-04-04T13:49:50.685Z,9.99
2023-04-04T13:52:23.792Z,10.02
2023-04-04T13:54:57.486Z,9.99
2023-04-04T13:57:30.509Z,10.01
2023-04-04T14:00:04.946Z,10.02
2023-04-04T14:02:39.177Z,10.01
2023-04-04T14:05:12.091Z,10.05
2023-04-04T14:07:44.977Z,10.03
2023-04-04T14:10:18.107Z,10.05
2023-04-04T14:12:50.834Z,10.04
2023-04-04T14:15:24.335Z,10.06
2023-04-04T14:17:59.202Z,10.06
2023-04-04T14:20:32.832Z,10.03
2023-04-04T14:23:06.575Z,10.03
2023-04-04T14:25:39.534Z,10.03
2023-04-04T14:28:12.556Z,10.03
2023-04-04T14:30:45.668Z,10.04
2023-04-04T14:33:19.923Z,10.02
2023-04-04T14:35:52.768Z,10.00
2023-04-04T14:38:25.500Z,9.97
2023-04-04T14:40:58.251Z,9.95
2023-04-04T14:43:30.905Z,9.94
2023-04-04T14:46:03.740Z,9.92
2023-04-04T14:48:37.860Z,9.92
2023-04-04T14:51:10.711Z,9.91
2023-04-04T14:53:43.441Z,9.90
2023-04-04T14:56:16.556Z,9.90
2023-04-04T14:58:50.267Z,9.89
2023-04-04T15:01:23.168Z,9.88
2023-04-04T15:03:57.266Z,9.89
2023-04-04T15:06:36.263Z,9.87
2023-04-04T15:09:09.728Z,9.86
2023-04-04T15:11:42.464Z,9.88
2023-04-04T15:14:15.350Z,9.89
2023-04-04T15:16:48.264Z,9.86
2023-04-04T15:19:22.489Z,9.86
2023-04-04T15:21:57.122Z,9.83
2023-04-04T15:24:29.755Z,9.84
2023-04-04T15:27:02.721Z,9.83
2023-04-04T15:29:35.388Z,9.83
2023-04-04T15:32:08.645Z,9.81
2023-04-04T15:34:43.081Z,9.80
2023-04-04T15:37:16.144Z,9.76
2023-04-04T15:39:53.639Z,9.75
2023-04-04T15:42:29.313Z,9.74
2023-04-04T15:45:02.251Z,9.73
2023-04-04T15:47:34.895Z,9.73
2023-04-04T15:50:11.631Z,9.71
2023-04-04T15:52:44.822Z,9.68
2023-04-04T15:55:19.969Z,9.66
2023-04-04T15:57:53.587Z,9.68
2023-04-04T16:00:28.374Z,9.66
2023-04-04T16:03:01.552Z,9.63
2023-04-04T16:05:35.795Z,9.61
2023-04-04T16:08:08.842Z,9.56
2023-04-04T16:10:41.824Z,9.55
2023-04-04T16:13:14.985Z,9.55
2023-04-04T16:15:47.750Z,9.54
2023-04-04T16:18:20.780Z,9.54
2023-04-04T16:20:54.836Z,9.52
2023-04-04T16:23:27.498Z,9.50
2023-04-04T16:26:00.187Z,9.50
2023-04-04T16:28:32.870Z,9.48
2023-04-04T16:31:06.313Z,9.45
2023-04-04T16:33:39.063Z,9.42
2023-04-04T16:36:13.278Z,9.40
2023-04-04T16:38:46.123Z,9.37
2023-04-04T16:41:18.869Z,9.35
2023-04-04T16:43:52.880Z,9.30
2023-04-04T16:46:26.461Z,9.29
2023-04-04T16:48:59.216Z,9.26
2023-04-04T16:51:33.409Z,9.23
2023-04-04T16:54:06.117Z,9.19
2023-04-04T16:56:38.818Z,9.16
2023-04-04T16:59:11.871Z,9.12
2023-04-04T17:01:44.517Z,9.09
2023-04-04T17:04:17.405Z,9.06
2023-04-04T17:06:51.657Z,9.01
2023-04-04T17:09:24.357Z,9.00
2023-04-04T17:11:57.773Z,8.93
2023-04-04T17:14:30.699Z,8.89
2023-04-04T17:17:03.301Z,8.86
2023-04-04T17:19:37.274Z,8.81
2023-04-04T17:22:11.666Z,8.75
2023-04-04T17:24:44.401Z,8.73
2023-04-04T17:27:17.042Z,8.66
2023-04-04T17:29:49.795Z,8.61
2023-04-04T17:32:22.460Z,8.55
2023-04-04T17:34:56.488Z,8.51
2023-04-04T17:37:31.246Z,8.46
2023-04-04T17:40:05.758Z,8.42
2023-04-04T17:42:38.771Z,8.34
2023-04-04T17:45:11.739Z,8.28
2023-04-04T18:02:17.279Z,7.78
2023-04-04T18:04:51.665Z,7.69
2023-04-04T18:07:24.388Z,7.60
2023-04-04T18:09:57.041Z,7.53
2023-04-04T18:12:30.598Z,7.46
2023-04-04T18:15:03.829Z,7.37
2023-04-04T18:17:38.479Z,7.31
2023-04-04T18:20:14.277Z,7.23
2023-04-04T18:22:52.738Z,7.14
2023-04-04T18:25:25.797Z,7.09
2023-04-04T18:27:58.514Z,7.02
2023-04-04T18:30:31.889Z,6.94
2023-04-04T18:33:06.213Z,6.88
2023-04-04T18:35:39.097Z,6.81
2023-04-04T18:38:12.181Z,6.74
2023-04-04T18:40:45.688Z,6.67
2023-04-04T18:43:18.389Z,6.60
2023-04-04T18:45:51.104Z,6.51
2023-04-04T18:48:25.258Z,6.44
2023-04-04T18:50:58.257Z,6.37
2023-04-04T18:53:30.918Z,6.29
2023-04-04T18:56:03.620Z,6.24
2023-04-04T18:58:37.714Z,6.18
2023-04-04T19:01:12.591Z,6.12
2023-04-04T19:03:48.395Z,6.07
2023-04-04T19:06:26.019Z,6.03
2023-04-04T19:09:00.118Z,5.99
2023-04-04T19:11:32.873Z,5.94
2023-04-04T19:14:07.949Z,5.90
2023-04-04T19:16:42.794Z,5.87
2023-04-04T19:19:17.641Z,5.84
2023-04-04T19:21:50.638Z,5.80
2023-04-04T19:24:23.401Z,5.77
2023-04-04T19:26:56.182Z,5.73
2023-04-04T19:29:29.132Z,5.71
2023-04-04T19:32:03.834Z,5.66
2023-04-04T19:34:39.037Z,5.63
2023-04-04T19:37:12.630Z,5.58
2023-04-04T19:39:45.496Z,5.54
2023-04-04T19:42:19.258Z,5.49
2023-04-04T19:44:52.060Z,5.44
2023-04-04T19:47:24.877Z,5.40
2023-04-04T19:49:58.949Z,5.38
2023-04-04T19:52:31.674Z,5.35
2023-04-04T19:55:09.513Z,5.33
2023-04-04T19:57:42.251Z,5.29
2023-04-04T20:00:18.926Z,5.26
2023-04-04T20:02:53.603Z,5.25
2023-04-04T20:05:53.987Z,5.23
2023-04-04T20:08:36.882Z,5.20
2023-04-04T20:11:09.694Z,5.20
2023-04-04T20:13:43.051Z,5.19
2023-04-04T20:16:16.487Z,5.18
2023-04-04T20:18:49.195Z,5.19
2023-04-04T20:21:22.403Z,5.18
2023-04-04T20:23:57.807Z,5.19
2023-04-04T20:26:48.527Z,5.19
2023-04-04T20:29:22.849Z,5.20
2023-04-04T20:31:56.700Z,5.19
2023-04-04T20:34:47.126Z,5.20
2023-04-04T20:37:22.170Z,5.20
2023-04-04T20:39:57.150Z,5.21
2023-04-04T20:42:34.973Z,5.20
2023-04-04T20:45:14.199Z,5.21
2023-04-04T20:47:48.393Z,5.22
2023-04-04T20:50:39.792Z,5.23
2023-04-04T20:53:17.967Z,5.21
2023-04-04T20:55:53.056Z,5.21
2023-04-04T20:58:29.281Z,5.19
2023-04-04T21:01:02.458Z,5.16
2023-04-04T21:03:38.197Z,5.16
2023-04-04T21:06:12.742Z,5.14
2023-04-04T21:08:47.513Z,5.13
2023-04-04T21:11:25.399Z,5.11
2023-04-04T21:13:58.285Z,5.09
2023-04-04T21:16:30.980Z,5.07
2023-04-04T21:19:03.660Z,5.04
2023-04-04T21:21:37.160Z,5.00
2023-04-04T21:24:10.712Z,4.98
2023-04-04T21:26:44.884Z,4.94
2023-04-04T21:29:22.079Z,4.89
2023-04-04T21:31:56.232Z,4.84
2023-04-04T21:34:29.022Z,4.81
2023-04-04T21:37:02.736Z,4.74
2023-04-04T21:39:37.785Z,4.71
2023-04-04T21:42:11.847Z,4.69
2023-04-04T21:44:44.617Z,4.66
2023-04-04T21:47:17.245Z,4.63
2023-04-04T21:49:49.982Z,4.62
2023-04-04T21:52:22.663Z,4.61
2023-04-04T21:54:55.491Z,4.60
2023-04-04T21:57:29.541Z,4.61
2023-04-04T22:00:02.229Z,4.59
2023-04-04T22:02:34.929Z,4.61
2023-04-04T22:05:08.263Z,4.62
2023-04-04T22:07:40.950Z,4.64
2023-04-04T22:10:13.670Z,4.66
2023-04-04T22:12:49.812Z,4.70
2023-04-04T22:15:22.788Z,4.71
2023-04-04T22:18:03.524Z,4.73
2023-04-04T22:20:36.581Z,4.76
2023-04-04T22:23:10.036Z,4.78
2023-04-04T22:25:42.804Z,4.81
2023-04-04T22:28:18.163Z,4.83
2023-04-04T22:30:51.127Z,4.84
2023-04-04T22:33:23.770Z,4.84
2023-04-04T22:35:57.944Z,4.87
2023-04-04T22:38:30.782Z,4.87
2023-04-04T22:41:03.521Z,4.91
2023-04-04T22:43:37.535Z,4.91
2023-04-04T22:46:10.266Z,4.91
2023-04-04T22:48:46.375Z,4.92
2023-04-04T22:51:19.028Z,4.92
2023-04-04T22:53:51.691Z,4.92
2023-04-04T22:56:24.574Z,4.92
2023-04-04T22:58:58.709Z,4.93
2023-04-04T23:01:31.561Z,4.91
2023-04-04T23:04:04.390Z,4.89
2023-04-04T23:06:38.676Z,4.88
2023-04-04T23:09:11.555Z,4.87
2023-04-04T23:11:44.279Z,4.88
2023-04-04T23:14:19.676Z,4.87
2023-04-04T23:16:52.722Z,4.86
2023-04-04T23:19:25.639Z,4.85
2023-04-04T23:21:59.596Z,4.82
2023-04-04T23:24:32.764Z,4.80
2023-04-04T23:27:05.592Z,4.79
2023-04-04T23:29:39.588Z,4.75
2023-04-04T23:32:12.304Z,4.73
2023-04-04T23:34:44.901Z,4.69
2023-04-04T23:37:17.658Z,4.65
2023-04-04T23:39:50.389Z,4.64
2023-04-04T23:42:23.081Z,4.61
2023-04-04T23:44:59.484Z,4.57
2023-04-04T23:47:32.234Z,4.53
2023-04-04T23:50:05.341Z,4.51
2023-04-04T23:52:39.654Z,4.46
2023-04-04T23:55:12.290Z,4.43
2023-04-04T23:57:45.220Z,4.36
